sensor_id;sensor_type;location;lat;lon;timestamp;pressure;altitude;pressure_sealevel;temperature;humidity
68075;BME280;54864;52.002;5.468;2023-07-28T00:01:00;100295.47;;;20.69;93.42
68075;BME280;54864;52.002;5.468;2023-07-28T00:02:01;100292.13;;;20.57;93.90
68075;BME280;54864;52.002;5.468;2023-07-28T00:03:03;100286.09;;;20.46;94.41
68075;BME280;54864;52.002;5.468;2023-07-28T00:04:04;100293.41;;;20.53;94.59
68075;BME280;54864;52.002;5.468;2023-07-28T00:05:07;100289.59;;;20.56;94.22
68075;BME280;54864;52.002;5.468;2023-07-28T00:06:08;100291.72;;;20.52;94.75
68075;BME280;54864;52.002;5.468;2023-07-28T00:07:11;100285.09;;;20.56;94.80
68075;BME280;54864;52.002;5.468;2023-07-28T00:08:15;100296.91;;;20.64;94.11
68075;BME280;54864;52.002;5.468;2023-07-28T00:09:17;100291.13;;;20.58;94.52
68075;BME280;54864;52.002;5.468;2023-07-28T00:10:18;100292.28;;;20.56;94.73
68075;BME280;54864;52.002;5.468;2023-07-28T00:11:23;100293.53;;;20.62;93.96
68075;BME280;54864;52.002;5.468;2023-07-28T00:12:24;100291.72;;;20.52;94.79
68075;BME280;54864;52.002;5.468;2023-07-28T00:13:26;100286.81;;;20.48;94.97
68075;BME280;54864;52.002;5.468;2023-07-28T00:14:27;100289.19;;;20.51;94.97
68075;BME280;54864;52.002;5.468;2023-07-28T00:15:32;100294.00;;;20.47;95.17
68075;BME280;54864;52.002;5.468;2023-07-28T00:16:32;100299.25;;;20.39;95.99
68075;BME280;54864;52.002;5.468;2023-07-28T00:17:38;100297.81;;;20.45;95.72
68075;BME280;54864;52.002;5.468;2023-07-28T00:18:39;100296.41;;;20.41;95.65
68075;BME280;54864;52.002;5.468;2023-07-28T00:19:43;100295.97;;;20.36;96.27
68075;BME280;54864;52.002;5.468;2023-07-28T00:20:44;100299.78;;;20.33;96.06
68075;BME280;54864;52.002;5.468;2023-07-28T00:21:46;100298.94;;;20.33;96.28
68075;BME280;54864;52.002;5.468;2023-07-28T00:22:48;100297.69;;;20.27;96.58
68075;BME280;54864;52.002;5.468;2023-07-28T00:23:53;100296.25;;;20.33;96.58
68075;BME280;54864;52.002;5.468;2023-07-28T00:24:54;100299.66;;;20.35;96.56
68075;BME280;54864;52.002;5.468;2023-07-28T00:25:56;100296.25;;;20.33;96.41
68075;BME280;54864;52.002;5.468;2023-07-28T00:26:56;100295.00;;;20.37;96.23
68075;BME280;54864;52.002;5.468;2023-07-28T00:27:58;100303.72;;;20.39;96.01
68075;BME280;54864;52.002;5.468;2023-07-28T00:28:59;100293.16;;;20.37;95.69
68075;BME280;54864;52.002;5.468;2023-07-28T00:30:00;100295.72;;;20.29;96.12
68075;BME280;54864;52.002;5.468;2023-07-28T00:31:03;100296.56;;;20.30;96.96
68075;BME280;54864;52.002;5.468;2023-07-28T00:32:05;100287.25;;;20.34;96.25
68075;BME280;54864;52.002;5.468;2023-07-28T00:33:07;100291.47;;;20.36;96.52
68075;BME280;54864;52.002;5.468;2023-07-28T00:34:08;100291.06;;;20.41;96.25
68075;BME280;54864;52.002;5.468;2023-07-28T00:35:12;100287.53;;;20.40;96.33
68075;BME280;54864;52.002;5.468;2023-07-28T00:36:13;100285.13;;;20.47;95.75
68075;BME280;54864;52.002;5.468;2023-07-28T00:37:17;100284.97;;;20.48;95.18
68075;BME280;54864;52.002;5.468;2023-07-28T00:38:20;100283.84;;;20.51;95.24
68075;BME280;54864;52.002;5.468;2023-07-28T00:39:26;100284.41;;;20.35;95.64
68075;BME280;54864;52.002;5.468;2023-07-28T00:40:30;100282.44;;;20.47;95.22
68075;BME280;54864;52.002;5.468;2023-07-28T00:41:40;100281.19;;;20.41;94.73
68075;BME280;54864;52.002;5.468;2023-07-28T00:42:41;100293.88;;;20.39;95.27
68075;BME280;54864;52.002;5.468;2023-07-28T00:43:43;100298.94;;;20.42;95.14
68075;BME280;54864;52.002;5.468;2023-07-28T00:44:44;100284.13;;;20.38;95.52
68075;BME280;54864;52.002;5.468;2023-07-28T00:45:45;100292.19;;;20.29;96.28
68075;BME280;54864;52.002;5.468;2023-07-28T00:46:47;100294.72;;;20.30;96.27
68075;BME280;54864;52.002;5.468;2023-07-28T00:47:49;100295.72;;;20.29;96.16
68075;BME280;54864;52.002;5.468;2023-07-28T00:48:50;100300.09;;;20.01;98.15
68075;BME280;54864;52.002;5.468;2023-07-28T00:49:51;100291.78;;;20.14;98.19
68075;BME280;54864;52.002;5.468;2023-07-28T00:50:53;100292.63;;;20.24;97.48
68075;BME280;54864;52.002;5.468;2023-07-28T00:51:55;100290.50;;;20.27;97.05
68075;BME280;54864;52.002;5.468;2023-07-28T00:52:57;100291.63;;;20.25;97.37
68075;BME280;54864;52.002;5.468;2023-07-28T00:54:01;100291.78;;;20.23;97.24
68075;BME280;54864;52.002;5.468;2023-07-28T00:55:03;100286.69;;;20.30;96.89
68075;BME280;54864;52.002;5.468;2023-07-28T00:56:05;100292.88;;;20.31;96.40
68075;BME280;54864;52.002;5.468;2023-07-28T00:57:06;100291.06;;;20.31;96.79
68075;BME280;54864;52.002;5.468;2023-07-28T00:58:12;100288.38;;;20.31;97.08
68075;BME280;54864;52.002;5.468;2023-07-28T00:59:13;100289.94;;;20.24;97.40
68075;BME280;54864;52.002;5.468;2023-07-28T01:00:15;100289.66;;;20.27;96.92
68075;BME280;54864;52.002;5.468;2023-07-28T01:01:16;100292.06;;;20.40;96.46
68075;BME280;54864;52.002;5.468;2023-07-28T01:02:18;100295.00;;;20.46;95.83
68075;BME280;54864;52.002;5.468;2023-07-28T01:03:20;100284.97;;;20.48;95.55
68075;BME280;54864;52.002;5.468;2023-07-28T01:04:23;100293.72;;;20.50;95.65
68075;BME280;54864;52.002;5.468;2023-07-28T01:05:44;100290.28;;;20.58;95.14
68075;BME280;54864;52.002;5.468;2023-07-28T01:06:55;100288.88;;;20.64;94.52
68075;BME280;54864;52.002;5.468;2023-07-28T01:08:04;100296.75;;;20.65;94.37
68075;BME280;54864;52.002;5.468;2023-07-28T01:09:12;100292.53;;;20.63;94.33
68075;BME280;54864;52.002;5.468;2023-07-28T01:10:17;100279.03;;;20.54;94.25
68075;BME280;54864;52.002;5.468;2023-07-28T01:11:35;100292.56;;;20.53;94.94
68075;BME280;54864;52.002;5.468;2023-07-28T01:12:54;100292.81;;;20.60;94.62
68075;BME280;54864;52.002;5.468;2023-07-28T01:14:11;100301.63;;;20.42;95.28
68075;BME280;54864;52.002;5.468;2023-07-28T01:15:30;100293.31;;;20.26;96.10
68075;BME280;54864;52.002;5.468;2023-07-28T01:16:35;100309.81;;;20.41;95.77
68075;BME280;54864;52.002;5.468;2023-07-28T01:17:54;100306.13;;;20.42;95.76
68075;BME280;54864;52.002;5.468;2023-07-28T01:19:16;100308.81;;;20.32;96.16
68075;BME280;54864;52.002;5.468;2023-07-28T01:20:38;100301.91;;;20.39;96.00
68075;BME280;54864;52.002;5.468;2023-07-28T01:21:42;100306.13;;;20.42;94.96
68075;BME280;54864;52.002;5.468;2023-07-28T01:22:59;100308.09;;;20.30;95.61
68075;BME280;54864;52.002;5.468;2023-07-28T01:24:21;100304.59;;;20.30;95.92
68075;BME280;54864;52.002;5.468;2023-07-28T01:25:31;100307.81;;;20.33;95.86
68075;BME280;54864;52.002;5.468;2023-07-28T01:26:36;100307.41;;;20.28;96.22
68075;BME280;54864;52.002;5.468;2023-07-28T01:27:37;100306.16;;;20.22;97.06
68075;BME280;54864;52.002;5.468;2023-07-28T01:28:43;100307.81;;;20.33;96.15
68075;BME280;54864;52.002;5.468;2023-07-28T01:29:46;100304.16;;;20.34;96.00
68075;BME280;54864;52.002;5.468;2023-07-28T01:30:48;100302.63;;;20.41;95.36
68075;BME280;54864;52.002;5.468;2023-07-28T01:31:48;100299.22;;;20.49;95.24
68075;BME280;54864;52.002;5.468;2023-07-28T01:32:50;100297.78;;;20.54;94.28
68075;BME280;54864;52.002;5.468;2023-07-28T01:33:51;100299.31;;;20.57;94.12
68075;BME280;54864;52.002;5.468;2023-07-28T01:34:53;100300.31;;;20.56;94.06
68075;BME280;54864;52.002;5.468;2023-07-28T01:35:54;100306.41;;;20.48;94.48
68075;BME280;54864;52.002;5.468;2023-07-28T01:36:56;100295.25;;;20.53;94.40
68075;BME280;54864;52.002;5.468;2023-07-28T01:37:57;100301.44;;;20.53;93.71
68075;BME280;54864;52.002;5.468;2023-07-28T01:38:59;100297.09;;;20.52;93.84
68075;BME280;54864;52.002;5.468;2023-07-28T01:40:02;100302.56;;;20.61;93.62
68075;BME280;54864;52.002;5.468;2023-07-28T01:41:04;100301.16;;;20.56;93.23
68075;BME280;54864;52.002;5.468;2023-07-28T01:42:06;100302.28;;;20.54;93.71
68075;BME280;54864;52.002;5.468;2023-07-28T01:43:08;100290.06;;;20.42;93.74
68075;BME280;54864;52.002;5.468;2023-07-28T01:44:09;100302.91;;;20.29;94.31
68075;BME280;54864;52.002;5.468;2023-07-28T01:45:11;100304.44;;;20.41;94.52
68075;BME280;54864;52.002;5.468;2023-07-28T01:46:12;100307.13;;;20.41;94.25
68075;BME280;54864;52.002;5.468;2023-07-28T01:47:14;100299.22;;;20.49;94.15
68075;BME280;54864;52.002;5.468;2023-07-28T01:48:14;100306.84;;;20.44;94.16
68075;BME280;54864;52.002;5.468;2023-07-28T01:49:16;100312.47;;;20.31;93.91
68075;BME280;54864;52.002;5.468;2023-07-28T01:50:17;100310.94;;;20.29;94.71
68075;BME280;54864;52.002;5.468;2023-07-28T01:51:19;100303.59;;;20.31;94.68
68075;BME280;54864;52.002;5.468;2023-07-28T01:52:23;100315.28;;;20.30;94.61
68075;BME280;54864;52.002;5.468;2023-07-28T01:53:39;100314.88;;;20.34;94.61
68075;BME280;54864;52.002;5.468;2023-07-28T01:54:40;100316.00;;;20.41;94.38
68075;BME280;54864;52.002;5.468;2023-07-28T01:55:42;100314.03;;;20.34;94.38
68075;BME280;54864;52.002;5.468;2023-07-28T01:56:44;100308.25;;;20.29;94.89
68075;BME280;54864;52.002;5.468;2023-07-28T01:57:55;100308.53;;;20.35;94.65
68075;BME280;54864;52.002;5.468;2023-07-28T01:58:56;100307.13;;;20.31;94.58
68075;BME280;54864;52.002;5.468;2023-07-28T01:59:58;100307.56;;;20.26;95.22
68075;BME280;54864;52.002;5.468;2023-07-28T02:00:59;100308.25;;;20.29;95.42
68075;BME280;54864;52.002;5.468;2023-07-28T02:02:00;100305.00;;;20.35;95.07
68075;BME280;54864;52.002;5.468;2023-07-28T02:03:02;100308.00;;;20.22;95.23
68075;BME280;54864;52.002;5.468;2023-07-28T02:04:03;100302.63;;;20.32;95.31
68075;BME280;54864;52.002;5.468;2023-07-28T02:05:06;100307.81;;;20.33;95.21
68075;BME280;54864;52.002;5.468;2023-07-28T02:06:07;100307.28;;;20.20;95.53
68075;BME280;54864;52.002;5.468;2023-07-28T02:07:09;100308.69;;;20.24;95.37
68075;BME280;54864;52.002;5.468;2023-07-28T02:08:10;100298.25;;;20.31;95.28
68075;BME280;54864;52.002;5.468;2023-07-28T02:09:11;100307.56;;;20.17;95.57
68075;BME280;54864;52.002;5.468;2023-07-28T02:10:13;100299.09;;;20.12;96.09
68075;BME280;54864;52.002;5.468;2023-07-28T02:11:13;100299.25;;;20.20;96.24
68075;BME280;54864;52.002;5.468;2023-07-28T02:12:15;100302.75;;;20.30;95.44
68075;BME280;54864;52.002;5.468;2023-07-28T02:13:17;100304.31;;;20.33;95.33
68075;BME280;54864;52.002;5.468;2023-07-28T02:14:19;100303.19;;;20.25;95.73
68075;BME280;54864;52.002;5.468;2023-07-28T02:15:20;100307.69;;;20.25;95.51
68075;BME280;54864;52.002;5.468;2023-07-28T02:16:22;100306.84;;;20.34;95.29
68075;BME280;54864;52.002;5.468;2023-07-28T02:17:23;100302.63;;;20.32;95.39
68075;BME280;54864;52.002;5.468;2023-07-28T02:18:23;100301.91;;;20.30;95.09
68075;BME280;54864;52.002;5.468;2023-07-28T02:19:25;100297.00;;;20.25;95.33
68075;BME280;54864;52.002;5.468;2023-07-28T02:20:32;100302.78;;;20.20;95.54
68075;BME280;54864;52.002;5.468;2023-07-28T02:21:36;100299.81;;;20.23;96.07
68075;BME280;54864;52.002;5.468;2023-07-28T02:22:36;100301.66;;;20.23;96.13
68075;BME280;54864;52.002;5.468;2023-07-28T02:23:40;100313.06;;;20.25;96.31
68075;BME280;54864;52.002;5.468;2023-07-28T02:24:45;100305.44;;;20.30;96.11
68075;BME280;54864;52.002;5.468;2023-07-28T02:25:46;100307.69;;;20.35;95.92
68075;BME280;54864;52.002;5.468;2023-07-28T02:26:47;100310.78;;;20.40;95.48
68075;BME280;54864;52.002;5.468;2023-07-28T02:27:48;100305.16;;;20.43;95.31
68075;BME280;54864;52.002;5.468;2023-07-28T02:28:51;100301.03;;;20.48;95.18
68075;BME280;54864;52.002;5.468;2023-07-28T02:29:52;100298.47;;;20.56;94.42
68075;BME280;54864;52.002;5.468;2023-07-28T02:30:54;100304.97;;;20.54;93.76
68075;BME280;54864;52.002;5.468;2023-07-28T02:31:55;100301.72;;;20.60;93.89
68075;BME280;54864;52.002;5.468;2023-07-28T02:32:57;100303.25;;;20.63;93.42
68075;BME280;54864;52.002;5.468;2023-07-28T02:33:57;100296.94;;;20.54;93.21
68075;BME280;54864;52.002;5.468;2023-07-28T02:34:59;100301.31;;;20.55;93.73
68075;BME280;54864;52.002;5.468;2023-07-28T02:36:00;100299.63;;;20.54;93.62
68075;BME280;54864;52.002;5.468;2023-07-28T02:37:02;100306.06;;;20.61;93.49
68075;BME280;54864;52.002;5.468;2023-07-28T02:38:03;100304.78;;;20.65;93.18
68075;BME280;54864;52.002;5.468;2023-07-28T02:39:05;100297.19;;;20.61;93.24
68075;BME280;54864;52.002;5.468;2023-07-28T02:40:07;100297.34;;;20.59;93.21
68075;BME280;54864;52.002;5.468;2023-07-28T02:41:09;100302.25;;;20.64;93.29
68075;BME280;54864;52.002;5.468;2023-07-28T02:42:11;100306.19;;;20.69;93.07
68075;BME280;54864;52.002;5.468;2023-07-28T02:43:13;100307.97;;;20.78;92.11
68075;BME280;54864;52.002;5.468;2023-07-28T02:44:15;100306.97;;;20.79;91.95
68075;BME280;54864;52.002;5.468;2023-07-28T02:45:17;100308.81;;;20.79;92.09
68075;BME280;54864;52.002;5.468;2023-07-28T02:46:18;100302.63;;;20.78;91.84
68075;BME280;54864;52.002;5.468;2023-07-28T02:47:20;100304.75;;;20.75;92.08
68075;BME280;54864;52.002;5.468;2023-07-28T02:48:21;100303.75;;;20.76;91.96
68075;BME280;54864;52.002;5.468;2023-07-28T02:49:23;100310.81;;;20.77;91.63
68075;BME280;54864;52.002;5.468;2023-07-28T02:50:24;100318.00;;;20.76;92.09
68075;BME280;54864;52.002;5.468;2023-07-28T02:51:26;100317.34;;;20.65;92.59
68075;BME280;54864;52.002;5.468;2023-07-28T02:52:39;100321.00;;;20.64;92.36
68075;BME280;54864;52.002;5.468;2023-07-28T02:53:41;100323.13;;;20.60;93.16
68075;BME280;54864;52.002;5.468;2023-07-28T02:54:41;100321.16;;;20.62;92.66
68075;BME280;54864;52.002;5.468;2023-07-28T02:55:43;100318.63;;;20.61;92.74
68075;BME280;54864;52.002;5.468;2023-07-28T02:56:44;100315.06;;;20.70;92.72
68075;BME280;54864;52.002;5.468;2023-07-28T02:57:45;100320.53;;;20.78;92.22
68075;BME280;54864;52.002;5.468;2023-07-28T02:58:47;100313.63;;;20.75;91.83
68075;BME280;54864;52.002;5.468;2023-07-28T02:59:49;100317.44;;;20.73;92.13
68075;BME280;54864;52.002;5.468;2023-07-28T03:00:51;100311.66;;;20.77;92.16
68075;BME280;54864;52.002;5.468;2023-07-28T03:01:52;100311.66;;;20.77;91.96
68075;BME280;54864;52.002;5.468;2023-07-28T03:02:54;100310.44;;;20.62;92.31
68075;BME280;54864;52.002;5.468;2023-07-28T03:03:55;100316.09;;;20.59;93.03
68075;BME280;54864;52.002;5.468;2023-07-28T03:04:57;100321.31;;;20.61;93.32
68075;BME280;54864;52.002;5.468;2023-07-28T03:05:58;100314.50;;;20.66;92.91
68075;BME280;54864;52.002;5.468;2023-07-28T03:06:59;100320.31;;;20.62;92.81
68075;BME280;54864;52.002;5.468;2023-07-28T03:08:00;100322.16;;;20.61;93.18
68075;BME280;54864;52.002;5.468;2023-07-28T03:09:02;100325.97;;;20.58;93.64
68075;BME280;54864;52.002;5.468;2023-07-28T03:10:03;100326.91;;;20.67;93.17
68075;BME280;54864;52.002;5.468;2023-07-28T03:11:05;100332.13;;;20.69;93.02
68075;BME280;54864;52.002;5.468;2023-07-28T03:12:07;100330.44;;;20.68;93.15
68075;BME280;54864;52.002;5.468;2023-07-28T03:13:09;100329.47;;;20.59;92.79
68075;BME280;54864;52.002;5.468;2023-07-28T03:14:10;100325.38;;;20.65;93.17
68075;BME280;54864;52.002;5.468;2023-07-28T03:15:14;100332.97;;;20.69;93.21
68075;BME280;54864;52.002;5.468;2023-07-28T03:16:15;100338.59;;;20.76;92.51
68075;BME280;54864;52.002;5.468;2023-07-28T03:17:17;100334.50;;;20.72;92.86
68075;BME280;54864;52.002;5.468;2023-07-28T03:18:18;100330.00;;;20.72;92.69
68075;BME280;54864;52.002;5.468;2023-07-28T03:19:19;100328.75;;;20.67;93.18
68075;BME280;54864;52.002;5.468;2023-07-28T03:20:20;100340.31;;;20.67;93.08
68075;BME280;54864;52.002;5.468;2023-07-28T03:21:21;100336.09;;;20.65;93.12
68075;BME280;54864;52.002;5.468;2023-07-28T03:22:23;100332.72;;;20.63;93.21
68075;BME280;54864;52.002;5.468;2023-07-28T03:23:24;100337.47;;;20.69;93.27
68075;BME280;54864;52.002;5.468;2023-07-28T03:24:26;100336.06;;;20.74;92.92
68075;BME280;54864;52.002;5.468;2023-07-28T03:25:38;100339.88;;;20.72;92.93
68075;BME280;54864;52.002;5.468;2023-07-28T03:26:40;100334.81;;;20.69;93.20
68075;BME280;54864;52.002;5.468;2023-07-28T03:27:41;100329.31;;;20.70;93.01
68075;BME280;54864;52.002;5.468;2023-07-28T03:28:43;100328.75;;;20.67;93.34
68075;BME280;54864;52.002;5.468;2023-07-28T03:29:44;100341.13;;;20.77;92.75
68075;BME280;54864;52.002;5.468;2023-07-28T03:30:47;100340.47;;;20.66;93.30
68075;BME280;54864;52.002;5.468;2023-07-28T03:31:54;100333.66;;;20.71;93.46
68075;BME280;54864;52.002;5.468;2023-07-28T03:32:56;100344.78;;;20.76;93.43
68075;BME280;54864;52.002;5.468;2023-07-28T03:33:57;100336.34;;;20.71;93.18
68075;BME280;54864;52.002;5.468;2023-07-28T03:34:59;100339.88;;;20.72;93.17
68075;BME280;54864;52.002;5.468;2023-07-28T03:36:00;100348.47;;;20.75;92.94
68075;BME280;54864;52.002;5.468;2023-07-28T03:37:00;100347.63;;;20.84;92.63
68075;BME280;54864;52.002;5.468;2023-07-28T03:38:03;100347.47;;;20.86;92.20
68075;BME280;54864;52.002;5.468;2023-07-28T03:39:04;100343.66;;;20.79;92.70
68075;BME280;54864;52.002;5.468;2023-07-28T03:40:07;100347.91;;;20.72;92.79
68075;BME280;54864;52.002;5.468;2023-07-28T03:41:08;100347.50;;;20.67;93.33
68075;BME280;54864;52.002;5.468;2023-07-28T03:42:10;100348.91;;;20.71;93.39
68075;BME280;54864;52.002;5.468;2023-07-28T03:43:11;100345.09;;;20.73;93.11
68075;BME280;54864;52.002;5.468;2023-07-28T03:44:13;100346.50;;;20.68;93.52
68075;BME280;54864;52.002;5.468;2023-07-28T03:45:16;100351.06;;;20.57;93.64
68075;BME280;54864;52.002;5.468;2023-07-28T03:46:19;100350.06;;;20.58;93.96
68075;BME280;54864;52.002;5.468;2023-07-28T03:47:20;100355.00;;;20.53;94.35
68075;BME280;54864;52.002;5.468;2023-07-28T03:48:22;100358.81;;;20.61;94.72
68075;BME280;54864;52.002;5.468;2023-07-28T03:49:22;100356.38;;;20.67;94.48
68075;BME280;54864;52.002;5.468;2023-07-28T03:50:24;100355.13;;;20.62;94.83
68075;BME280;54864;52.002;5.468;2023-07-28T03:51:38;100350.47;;;20.64;94.81
68075;BME280;54864;52.002;5.468;2023-07-28T03:52:40;100354.03;;;20.54;94.91
68075;BME280;54864;52.002;5.468;2023-07-28T03:53:43;100357.41;;;20.56;95.28
68075;BME280;54864;52.002;5.468;2023-07-28T03:54:45;100351.72;;;20.69;94.58
68075;BME280;54864;52.002;5.468;2023-07-28T03:55:46;100350.63;;;20.62;94.10
68075;BME280;54864;52.002;5.468;2023-07-28T03:56:48;100356.78;;;20.72;93.78
68075;BME280;54864;52.002;5.468;2023-07-28T03:57:49;100359.91;;;20.68;94.16
68075;BME280;54864;52.002;5.468;2023-07-28T03:58:51;100352.16;;;20.65;94.05
68075;BME280;54864;52.002;5.468;2023-07-28T03:59:52;100350.34;;;20.55;95.04
68075;BME280;54864;52.002;5.468;2023-07-28T04:00:54;100355.28;;;20.60;94.91
68075;BME280;54864;52.002;5.468;2023-07-28T04:01:56;100354.56;;;20.68;94.18
68075;BME280;54864;52.002;5.468;2023-07-28T04:02:58;100357.34;;;20.76;93.86
68075;BME280;54864;52.002;5.468;2023-07-28T04:04:02;100353.72;;;20.67;94.02
68075;BME280;54864;52.002;5.468;2023-07-28T04:05:05;100358.78;;;20.70;94.58
68075;BME280;54864;52.002;5.468;2023-07-28T04:06:10;100357.50;;;20.74;93.92
68075;BME280;54864;52.002;5.468;2023-07-28T04:07:13;100359.88;;;20.77;93.60
68075;BME280;54864;52.002;5.468;2023-07-28T04:08:14;100362.69;;;20.76;93.87
68075;BME280;54864;52.002;5.468;2023-07-28T04:09:16;100354.38;;;20.79;93.38
68075;BME280;54864;52.002;5.468;2023-07-28T04:10:17;100359.88;;;20.87;93.03
68075;BME280;54864;52.002;5.468;2023-07-28T04:11:20;100362.31;;;20.61;94.28
68075;BME280;54864;52.002;5.468;2023-07-28T04:12:21;100360.06;;;20.66;94.25
68075;BME280;54864;52.002;5.468;2023-07-28T04:13:22;100357.25;;;20.58;94.82
68075;BME280;54864;52.002;5.468;2023-07-28T04:14:23;100352.31;;;20.63;94.95
68075;BME280;54864;52.002;5.468;2023-07-28T04:15:25;100357.78;;;20.71;94.44
68075;BME280;54864;52.002;5.468;2023-07-28T04:16:25;100352.84;;;20.67;94.39
68075;BME280;54864;52.002;5.468;2023-07-28T04:17:38;100355.69;;;20.65;94.75
68075;BME280;54864;52.002;5.468;2023-07-28T04:18:41;100356.34;;;20.77;94.17
68075;BME280;54864;52.002;5.468;2023-07-28T04:19:43;100354.22;;;20.80;93.69
68075;BME280;54864;52.002;5.468;2023-07-28T04:20:43;100345.34;;;20.80;93.49
68075;BME280;54864;52.002;5.468;2023-07-28T04:21:45;100351.28;;;20.83;93.43
68075;BME280;54864;52.002;5.468;2023-07-28T04:22:46;100351.44;;;20.82;93.20
68075;BME280;54864;52.002;5.468;2023-07-28T04:23:48;100353.81;;;20.85;93.09
68075;BME280;54864;52.002;5.468;2023-07-28T04:25:08;100352.38;;;20.91;92.93
68075;BME280;54864;52.002;5.468;2023-07-28T04:26:10;100355.47;;;20.96;92.44
68075;BME280;54864;52.002;5.468;2023-07-28T04:27:29;100351.78;;;20.97;92.38
68075;BME280;54864;52.002;5.468;2023-07-28T04:28:31;100349.94;;;20.97;91.98
68075;BME280;54864;52.002;5.468;2023-07-28T04:29:50;100353.66;;;20.86;93.05
68075;BME280;54864;52.002;5.468;2023-07-28T04:31:11;100355.75;;;20.93;92.86
68075;BME280;54864;52.002;5.468;2023-07-28T04:32:12;100350.84;;;20.78;92.90
68075;BME280;54864;52.002;5.468;2023-07-28T04:33:21;100360.56;;;20.79;93.60
68075;BME280;54864;52.002;5.468;2023-07-28T04:34:22;100350.59;;;20.81;93.32
68075;BME280;54864;52.002;5.468;2023-07-28T04:35:24;100356.50;;;20.75;93.42
68075;BME280;54864;52.002;5.468;2023-07-28T04:36:24;100363.97;;;20.81;93.45
68075;BME280;54864;52.002;5.468;2023-07-28T04:37:45;100371.59;;;20.86;93.34
68075;BME280;54864;52.002;5.468;2023-07-28T04:38:46;100362.25;;;20.90;92.80
68075;BME280;54864;52.002;5.468;2023-07-28T04:40:07;100370.19;;;20.82;93.01
68075;BME280;54864;52.002;5.468;2023-07-28T04:41:27;100371.88;;;20.83;93.23
68075;BME280;54864;52.002;5.468;2023-07-28T04:42:32;100366.06;;;20.87;93.15
68075;BME280;54864;52.002;5.468;2023-07-28T04:43:36;100367.75;;;20.88;93.10
68075;BME280;54864;52.002;5.468;2023-07-28T04:44:37;100367.31;;;20.93;92.83
68075;BME280;54864;52.002;5.468;2023-07-28T04:45:44;100367.34;;;20.83;93.31
68075;BME280;54864;52.002;5.468;2023-07-28T04:46:47;100366.38;;;20.84;93.35
68075;BME280;54864;52.002;5.468;2023-07-28T04:47:52;100375.53;;;20.82;93.11
68075;BME280;54864;52.002;5.468;2023-07-28T04:48:57;100374.97;;;20.88;93.08
68075;BME280;54864;52.002;5.468;2023-07-28T04:49:59;100375.22;;;20.95;92.47
68075;BME280;54864;52.002;5.468;2023-07-28T04:51:00;100379.31;;;20.89;92.76
68075;BME280;54864;52.002;5.468;2023-07-28T04:52:02;100384.44;;;20.82;92.52
68075;BME280;54864;52.002;5.468;2023-07-28T04:53:03;100382.16;;;20.87;93.01
68075;BME280;54864;52.002;5.468;2023-07-28T04:54:11;100385.69;;;20.78;93.25
68075;BME280;54864;52.002;5.468;2023-07-28T04:55:14;100385.81;;;20.86;93.69
68075;BME280;54864;52.002;5.468;2023-07-28T04:56:16;100374.38;;;20.94;92.95
68075;BME280;54864;52.002;5.468;2023-07-28T04:57:18;100387.38;;;20.89;93.31
68075;BME280;54864;52.002;5.468;2023-07-28T04:58:25;100387.22;;;20.91;93.28
68075;BME280;54864;52.002;5.468;2023-07-28T04:59:35;100380.28;;;20.98;93.02
68075;BME280;54864;52.002;5.468;2023-07-28T05:00:37;100382.53;;;21.02;92.40
68075;BME280;54864;52.002;5.468;2023-07-28T05:01:57;100386.78;;;20.95;92.57
68075;BME280;54864;52.002;5.468;2023-07-28T05:03:17;100390.84;;;20.99;92.55
68075;BME280;54864;52.002;5.468;2023-07-28T05:04:20;100391.00;;;20.98;92.71
68075;BME280;54864;52.002;5.468;2023-07-28T05:05:22;100387.34;;;20.99;92.93
68075;BME280;54864;52.002;5.468;2023-07-28T05:06:26;100385.91;;;21.04;92.76
68075;BME280;54864;52.002;5.468;2023-07-28T05:07:30;100380.09;;;21.09;92.34
68075;BME280;54864;52.002;5.468;2023-07-28T05:08:31;100384.06;;;21.05;92.43
68075;BME280;54864;52.002;5.468;2023-07-28T05:09:33;100389.28;;;21.06;92.12
68075;BME280;54864;52.002;5.468;2023-07-28T05:10:41;100384.06;;;21.05;92.36
68075;BME280;54864;52.002;5.468;2023-07-28T05:11:46;100387.44;;;21.07;92.28
68075;BME280;54864;52.002;5.468;2023-07-28T05:12:47;100388.00;;;21.10;92.21
68075;BME280;54864;52.002;5.468;2023-07-28T05:13:48;100384.16;;;21.13;91.82
68075;BME280;54864;52.002;5.468;2023-07-28T05:14:52;100383.38;;;21.03;92.59
68075;BME280;54864;52.002;5.468;2023-07-28T05:15:54;100390.53;;;21.12;91.88
68075;BME280;54864;52.002;5.468;2023-07-28T05:16:57;100390.13;;;21.07;91.57
68075;BME280;54864;52.002;5.468;2023-07-28T05:18:02;100382.91;;;21.07;91.41
68075;BME280;54864;52.002;5.468;2023-07-28T05:19:05;100383.22;;;21.04;91.89
68075;BME280;54864;52.002;5.468;2023-07-28T05:20:11;100378.84;;;21.03;92.13
68075;BME280;54864;52.002;5.468;2023-07-28T05:21:18;100378.84;;;21.03;92.34
68075;BME280;54864;52.002;5.468;2023-07-28T05:22:23;100380.63;;;21.12;91.96
68075;BME280;54864;52.002;5.468;2023-07-28T05:23:24;100386.53;;;21.16;91.41
68075;BME280;54864;52.002;5.468;2023-07-28T05:24:26;100387.84;;;21.12;91.65
68075;BME280;54864;52.002;5.468;2023-07-28T05:25:38;100388.84;;;21.11;91.88
68075;BME280;54864;52.002;5.468;2023-07-28T05:26:40;100383.22;;;21.04;92.29
68075;BME280;54864;52.002;5.468;2023-07-28T05:27:41;100394.50;;;21.08;92.86
68075;BME280;54864;52.002;5.468;2023-07-28T05:28:43;100386.16;;;21.11;92.18
68075;BME280;54864;52.002;5.468;2023-07-28T05:29:44;100386.00;;;21.12;92.19
68075;BME280;54864;52.002;5.468;2023-07-28T05:30:45;100382.47;;;21.12;92.04
68075;BME280;54864;52.002;5.468;2023-07-28T05:31:46;100387.00;;;21.11;91.80
68075;BME280;54864;52.002;5.468;2023-07-28T05:32:47;100394.19;;;21.11;92.07